Time;durP1;ratioP1;P1;durP2;ratioP2;P2;SDS_P1;SDS_P2;PMS_P1;PMS_P2;Temp;Humidity;BMP_temperature;BMP_pressure;BME280_temperature;BME280_humidity;BME280_pressure;Samples;Min_cycle;Max_cycle;Signal;HPM_P1;HPM_P2
2023/06/27 00:00:19;;;;;;;1999.90;999.90;;;16.90;99.90;;;;;;5033266;28;20029;-71
2023/06/27 00:02:48;;;;;;;1999.90;999.90;;;16.90;99.90;;;;;;5034224;28;20032;-70
2023/06/27 00:05:14;;;;;;;1999.90;999.90;;;16.90;99.90;;;;;;5053495;28;20028;-71
2023/06/27 00:07:42;;;;;;;1999.90;999.90;;;16.80;99.90;;;;;;5052822;28;20039;-70
2023/06/27 00:10:11;;;;;;;1999.90;999.90;;;16.80;99.90;;;;;;5033180;28;20056;-70
2023/06/27 00:12:37;;;;;;;1999.90;999.90;;;16.80;99.90;;;;;;5033367;28;20057;-70
2023/06/27 00:15:06;;;;;;;1999.90;999.90;;;16.80;99.90;;;;;;5031670;28;20050;-70
2023/06/27 00:17:33;;;;;;;1999.90;999.90;;;16.80;99.90;;;;;;5031637;28;20108;-70
2023/06/27 00:19:59;;;;;;;1999.90;999.90;;;16.70;99.90;;;;;;5032939;28;20040;-70
2023/06/27 00:22:26;;;;;;;1999.90;999.90;;;16.70;99.90;;;;;;5033115;28;20024;-70
2023/06/27 00:24:52;;;;;;;1999.90;999.90;;;16.70;99.90;;;;;;5032661;28;20396;-70
2023/06/27 00:27:18;;;;;;;1999.90;999.90;;;16.70;99.90;;;;;;5032873;28;20021;-70
2023/06/27 00:29:44;;;;;;;1999.90;999.90;;;16.70;99.90;;;;;;5031303;28;20099;-70
2023/06/27 00:32:10;;;;;;;1999.90;999.90;;;16.70;99.90;;;;;;5032264;28;20492;-70
2023/06/27 00:34:35;;;;;;;1999.90;999.90;;;16.60;99.90;;;;;;5032665;28;20194;-70
2023/06/27 00:37:01;;;;;;;1999.90;999.90;;;16.60;99.90;;;;;;5032911;28;20036;-70
2023/06/27 00:39:27;;;;;;;1999.90;999.90;;;16.60;99.90;;;;;;5032755;28;20030;-70
2023/06/27 00:41:53;;;;;;;1999.90;999.90;;;16.60;99.90;;;;;;5032410;28;20039;-70
2023/06/27 00:44:19;;;;;;;1999.90;999.90;;;16.40;99.90;;;;;;5048625;28;20100;-70
2023/06/27 00:46:47;;;;;;;1999.90;999.90;;;16.50;99.90;;;;;;5057168;28;20111;-70
2023/06/27 00:49:14;;;;;;;1999.90;999.90;;;16.40;99.90;;;;;;5056526;28;20036;-71
2023/06/27 00:51:40;;;;;;;1999.90;999.90;;;16.40;99.90;;;;;;5045409;28;20021;-70
2023/06/27 00:54:07;;;;;;;1999.90;999.90;;;16.40;99.90;;;;;;5036632;28;20072;-70
2023/06/27 00:56:33;;;;;;;1999.90;999.90;;;16.40;99.90;;;;;;5037264;28;20036;-70
2023/06/27 00:59:01;;;;;;;1999.90;999.90;;;16.40;99.90;;;;;;5036945;28;20079;-70
2023/06/27 01:01:29;;;;;;;1999.90;999.90;;;16.30;99.90;;;;;;5036491;28;20030;-70
2023/06/27 01:03:55;;;;;;;1999.90;999.90;;;16.30;99.90;;;;;;5036269;28;20108;-70
2023/06/27 01:06:43;;;;;;;1999.90;999.90;;;16.20;99.90;;;;;;5035191;28;20051;-70
2023/06/27 01:09:33;;;;;;;1999.90;999.90;;;16.20;99.90;;;;;;5036283;28;20411;-70
2023/06/27 01:12:18;;;;;;;1999.90;999.90;;;16.20;99.90;;;;;;5030230;28;20041;-70
2023/06/27 01:14:49;;;;;;;1999.90;999.90;;;16.20;99.90;;;;;;5035881;28;20053;-70
2023/06/27 01:17:17;;;;;;;1999.90;999.90;;;16.10;99.90;;;;;;5035863;28;20428;-70
2023/06/27 01:19:45;;;;;;;1999.90;999.90;;;16.10;99.90;;;;;;5036214;28;20060;-70
2023/06/27 01:22:17;;;;;;;1999.90;999.90;;;16.10;99.90;;;;;;5036295;28;20070;-70
2023/06/27 01:24:43;;;;;;;1999.90;999.90;;;16.00;99.90;;;;;;5038861;28;20022;-70
2023/06/27 01:27:12;;;;;;;1999.90;999.90;;;16.00;99.90;;;;;;5035130;28;20040;-70
2023/06/27 01:29:41;;;;;;;1999.90;999.90;;;16.00;99.90;;;;;;5035675;28;20037;-70
2023/06/27 01:32:22;;;;;;;1999.90;999.90;;;16.00;99.90;;;;;;5035531;28;20022;-70
2023/06/27 01:35:07;;;;;;;1999.90;999.90;;;15.90;99.90;;;;;;5049288;28;20155;-70
2023/06/27 01:37:39;;;;;;;1999.90;999.90;;;15.90;99.90;;;;;;5055808;28;20499;-70
2023/06/27 01:40:17;;;;;;;1999.90;999.90;;;15.90;99.90;;;;;;5055800;28;20096;-70
2023/06/27 01:42:46;;;;;;;1999.90;999.90;;;15.90;99.90;;;;;;5052160;28;20026;-70
2023/06/27 01:45:14;;;;;;;1999.90;999.90;;;15.90;99.90;;;;;;5051851;28;20025;-70
2023/06/27 01:47:41;;;;;;;1999.90;999.90;;;15.80;99.90;;;;;;5055702;28;20024;-70
2023/06/27 01:50:09;;;;;;;1999.90;999.90;;;15.80;99.90;;;;;;5055121;28;20037;-70
2023/06/27 01:52:35;;;;;;;1999.90;999.90;;;15.80;99.90;;;;;;5038069;28;20026;-70
2023/06/27 01:55:01;;;;;;;1999.90;999.90;;;15.70;99.90;;;;;;5034761;28;20037;-70
2023/06/27 01:57:27;;;;;;;1999.90;999.90;;;15.70;99.90;;;;;;5035698;28;20034;-70
2023/06/27 01:59:52;;;;;;;1999.90;999.90;;;15.70;99.90;;;;;;5045955;28;20100;-70
2023/06/27 02:02:19;;;;;;;1999.90;999.90;;;15.70;99.90;;;;;;5047363;28;20034;-70
2023/06/27 02:04:45;;;;;;;1999.90;999.90;;;15.60;99.90;;;;;;5035348;28;20037;-70
2023/06/27 02:07:10;;;;;;;1999.90;999.90;;;15.60;99.90;;;;;;5035997;28;20036;-70
2023/06/27 02:09:36;;;;;;;1999.90;999.90;;;15.60;99.90;;;;;;5035502;28;20037;-70
2023/06/27 02:12:04;;;;;;;1999.90;999.90;;;15.50;99.90;;;;;;5035382;28;20029;-70
2023/06/27 02:14:30;;;;;;;1999.90;999.90;;;15.40;99.90;;;;;;5034740;28;20034;-70
2023/06/27 02:16:56;;;;;;;1999.90;999.90;;;15.40;99.90;;;;;;5035507;28;20518;-70
2023/06/27 02:19:21;;;;;;;1999.90;999.90;;;15.30;99.90;;;;;;5035051;28;20029;-70
2023/06/27 02:21:48;;;;;;;1999.90;999.90;;;15.40;99.90;;;;;;5035401;28;20030;-70
2023/06/27 02:24:14;;;;;;;1999.90;999.90;;;15.30;99.90;;;;;;5034863;28;20488;-70
2023/06/27 02:26:39;;;;;;;1999.90;999.90;;;15.30;99.90;;;;;;5034660;28;20116;-70
2023/06/27 02:29:05;;;;;;;1999.90;999.90;;;15.30;99.90;;;;;;5034950;28;20067;-70
2023/06/27 02:31:31;;;;;;;1999.90;999.90;;;15.20;99.90;;;;;;5034174;28;20017;-70
2023/06/27 02:33:56;;;;;;;1999.90;999.90;;;15.20;99.90;;;;;;5034683;28;20527;-70
2023/06/27 02:36:25;;;;;;;1999.90;999.90;;;15.10;99.90;;;;;;5033551;28;20124;-70
2023/06/27 02:38:54;;;;;;;1999.90;999.90;;;15.10;99.90;;;;;;5034593;28;20485;-70
2023/06/27 02:41:23;;;;;;;1999.90;999.90;;;15.10;99.90;;;;;;5034902;28;20360;-70
2023/06/27 02:43:49;;;;;;;1999.90;999.90;;;15.10;99.90;;;;;;5035623;28;20030;-70
2023/06/27 02:46:15;;;;;;;1999.90;999.90;;;15.10;99.90;;;;;;5055102;28;20029;-70
2023/06/27 02:48:41;;;;;;;1999.90;999.90;;;15.10;99.90;;;;;;5054424;28;20112;-70
2023/06/27 02:51:06;;;;;;;1999.90;999.90;;;15.10;99.90;;;;;;5050422;28;20048;-70
2023/06/27 02:53:32;;;;;;;1999.90;999.90;;;15.10;99.90;;;;;;5034557;28;20081;-70
2023/06/27 02:56:02;;;;;;;1999.90;999.90;;;15.10;99.90;;;;;;5034417;28;20500;-70
2023/06/27 02:58:28;;;;;;;1999.90;999.90;;;15.00;99.90;;;;;;5034418;28;20020;-70
2023/06/27 03:00:54;;;;;;;1999.90;999.90;;;15.00;99.90;;;;;;5034516;28;20502;-70
2023/06/27 03:03:19;;;;;;;1999.90;999.90;;;15.00;99.90;;;;;;5034016;28;20056;-70
2023/06/27 03:05:45;;;;;;;1999.90;999.90;;;14.90;99.90;;;;;;5033345;28;20041;-70
2023/06/27 03:08:11;;;;;;;1999.90;999.90;;;14.90;99.90;;;;;;5034360;28;20060;-70
2023/06/27 03:10:36;;;;;;;1999.90;999.90;;;14.90;99.90;;;;;;5033759;28;20038;-70
2023/06/27 03:13:02;;;;;;;1999.90;999.90;;;14.80;99.90;;;;;;5032847;28;20416;-70
2023/06/27 03:15:28;;;;;;;1999.90;999.90;;;14.80;99.90;;;;;;5033892;28;20039;-70
2023/06/27 03:17:53;;;;;;;1999.90;999.90;;;14.80;99.90;;;;;;5034049;28;20025;-70
2023/06/27 03:20:20;;;;;;;1999.90;999.90;;;14.80;99.90;;;;;;5034424;28;20121;-70
2023/06/27 03:22:46;;;;;;;1999.90;999.90;;;14.80;99.90;;;;;;5034326;28;20040;-70
2023/06/27 03:25:12;;;;;;;1999.90;999.90;;;14.80;99.90;;;;;;5044072;28;20040;-70
2023/06/27 03:27:37;;;;;;;1999.90;999.90;;;14.80;99.90;;;;;;5035060;28;20029;-70
2023/06/27 03:30:04;;;;;;;1999.90;999.90;;;14.80;99.90;;;;;;5033705;28;20033;-70
2023/06/27 03:32:30;;;;;;;1999.90;999.90;;;14.80;99.90;;;;;;5032786;28;20021;-70
2023/06/27 03:34:56;;;;;;;1999.90;999.90;;;14.70;99.90;;;;;;5041220;28;20103;-70
2023/06/27 03:37:22;;;;;;;1999.90;999.90;;;14.70;99.90;;;;;;5053765;28;20017;-70
2023/06/27 03:39:47;;;;;;;1999.90;999.90;;;14.70;99.90;;;;;;5053246;28;20104;-70
2023/06/27 03:42:15;;;;;;;1999.90;999.90;;;14.70;99.90;;;;;;5053516;28;20097;-70
2023/06/27 03:44:40;;;;;;;1999.90;999.90;;;14.70;99.90;;;;;;5033392;28;20136;-70
2023/06/27 03:47:06;;;;;;;1999.90;999.90;;;14.70;99.90;;;;;;5032183;28;20030;-69
2023/06/27 03:49:32;;;;;;;1999.90;999.90;;;14.70;99.90;;;;;;5036459;28;20032;-70
2023/06/27 03:51:57;;;;;;;1999.90;999.90;;;14.70;99.90;;;;;;5044094;28;20438;-70
2023/06/27 03:54:23;;;;;;;1999.90;999.90;;;14.70;99.90;;;;;;5035149;28;20029;-70
2023/06/27 03:56:49;;;;;;;1999.90;999.90;;;14.70;99.90;;;;;;5053306;28;20024;-70
2023/06/27 03:59:14;;;;;;;1999.90;999.90;;;14.70;99.90;;;;;;5052727;28;20111;-70
2023/06/27 04:01:41;;;;;;;1999.90;999.90;;;14.70;99.90;;;;;;5050520;28;20373;-70
2023/06/27 04:04:07;;;;;;;1999.90;999.90;;;14.70;99.90;;;;;;5032988;28;20029;-70
2023/06/27 04:06:33;;;;;;;1999.90;999.90;;;14.70;99.90;;;;;;5033007;28;20052;-70
2023/06/27 04:08:59;;;;;;;1999.90;999.90;;;14.70;99.90;;;;;;5033119;28;20017;-70
2023/06/27 04:11:25;;;;;;;1999.90;999.90;;;14.70;99.90;;;;;;5033101;28;20055;-70
2023/06/27 04:13:51;;;;;;;1999.90;999.90;;;14.70;99.90;;;;;;5032860;28;20088;-70
2023/06/27 04:16:16;;;;;;;1999.90;999.90;;;14.60;99.90;;;;;;5032963;28;20026;-70
2023/06/27 04:18:42;;;;;;;1999.90;999.90;;;14.60;99.90;;;;;;5032847;28;20036;-70
2023/06/27 04:21:08;;;;;;;1999.90;999.90;;;14.60;99.90;;;;;;5032804;28;20037;-70
2023/06/27 04:23:34;;;;;;;1999.90;999.90;;;14.60;99.90;;;;;;5032994;28;20029;-70
2023/06/27 04:26:07;;;;;;;1999.90;999.90;;;14.60;99.90;;;;;;5040292;28;20108;-70
2023/06/27 04:28:36;;;;;;;1999.90;999.90;;;14.50;99.90;;;;;;5033348;28;20028;-70
2023/06/27 04:31:02;;;;;;;1999.90;999.90;;;14.50;99.90;;;;;;5033365;28;20033;-70
2023/06/27 04:33:28;;;;;;;1999.90;999.90;;;14.50;99.90;;;;;;5032267;28;20029;-70
2023/06/27 04:36:03;;;;;;;1999.90;999.90;;;14.60;99.90;;;;;;5033022;28;20037;-70
2023/06/27 04:38:37;;;;;;;1999.90;999.90;;;14.60;99.90;;;;;;5031611;28;20044;-70
2023/06/27 04:41:05;;;;;;;1999.90;999.90;;;14.60;99.90;;;;;;5032925;28;20133;-70
2023/06/27 04:43:32;;;;;;;1999.90;999.90;;;14.60;99.90;;;;;;5032920;28;20029;-70
2023/06/27 04:46:00;;;;;;;1999.90;999.90;;;14.60;99.90;;;;;;5044089;28;20553;-70
2023/06/27 04:48:29;;;;;;;1999.90;999.90;;;14.60;99.90;;;;;;5052450;28;20029;-70
2023/06/27 04:50:56;;;;;;;1999.90;999.90;;;14.60;99.90;;;;;;5052616;28;20083;-70
2023/06/27 04:53:22;;;;;;;1999.90;999.90;;;14.60;99.90;;;;;;5030451;28;20118;-70
2023/06/27 04:55:49;;;;;;;1999.90;999.90;;;14.60;99.90;;;;;;5032237;28;20053;-70
2023/06/27 04:58:15;;;;;;;1999.90;999.90;;;14.60;99.90;;;;;;5032246;28;20041;-70
2023/06/27 05:00:41;;;;;;;1999.90;999.90;;;14.70;99.90;;;;;;5041098;28;20028;-70
2023/06/27 05:03:07;;;;;;;1999.90;999.90;;;14.80;99.90;;;;;;5038039;28;20071;-70
2023/06/27 05:05:34;;;;;;;1999.90;999.90;;;14.80;99.90;;;;;;5032088;28;20041;-70
2023/06/27 05:08:03;;;;;;;1999.90;999.90;;;14.80;99.90;;;;;;5032339;28;20488;-70
2023/06/27 05:10:33;;;;;;;1999.90;999.90;;;14.90;99.90;;;;;;5032065;28;20026;-70
2023/06/27 05:12:59;;;;;;;1999.90;999.90;;;15.00;99.90;;;;;;5031631;28;20029;-70
2023/06/27 05:15:28;;;;;;;1999.90;999.90;;;15.10;99.90;;;;;;5032158;28;20021;-70
2023/06/27 05:18:15;;;;;;;1999.90;999.90;;;15.10;99.90;;;;;;5032120;28;20034;-69
2023/06/27 05:20:45;;;;;;;1999.90;999.90;;;15.20;99.90;;;;;;5032047;28;20416;-70
2023/06/27 05:23:11;;;;;;;1999.90;999.90;;;15.30;99.90;;;;;;5032165;28;20180;-70
2023/06/27 05:25:37;;;;;;;1999.90;999.90;;;15.30;99.90;;;;;;5036853;28;20017;-70
2023/06/27 05:28:07;;;;;;;1999.90;999.90;;;15.40;99.90;;;;;;5031401;28;20029;-70
2023/06/27 05:30:33;;;;;;;1999.90;999.90;;;15.40;99.90;;;;;;5035146;28;20026;-70
2023/06/27 05:32:59;;;;;;;1999.90;999.90;;;15.40;99.90;;;;;;5033747;28;20510;-70
2023/06/27 05:35:24;;;;;;;1999.90;999.90;;;15.40;99.90;;;;;;5035767;28;20464;-69
2023/06/27 05:37:50;;;;;;;1999.90;999.90;;;15.50;99.90;;;;;;5035100;28;20112;-70
2023/06/27 05:40:16;;;;;;;1999.90;999.90;;;15.50;99.90;;;;;;5038463;28;20510;-70
2023/06/27 05:42:42;;;;;;;1999.90;999.90;;;15.60;99.90;;;;;;5051992;28;20022;-70
2023/06/27 05:45:08;;;;;;;1999.90;999.90;;;15.70;99.90;;;;;;5035233;28;20029;-70
2023/06/27 05:47:34;;;;;;;1999.90;999.90;;;15.70;99.90;;;;;;5035221;28;20021;-70
2023/06/27 05:49:59;;;;;;;1999.90;999.90;;;15.80;99.90;;;;;;5034848;28;20037;-70
2023/06/27 05:52:25;;;;;;;1999.90;999.90;;;15.90;99.90;;;;;;5034753;28;20466;-70
2023/06/27 05:54:51;;;;;;;1999.90;999.90;;;16.00;99.90;;;;;;5035437;28;20036;-70
2023/06/27 05:57:18;;;;;;;1999.90;999.90;;;16.10;99.90;;;;;;5045348;28;20028;-70
2023/06/27 05:59:43;;;;;;;1999.90;999.90;;;16.20;99.90;;;;;;5054388;28;20025;-71
2023/06/27 06:02:09;;;;;;;1999.90;999.90;;;16.30;99.90;;;;;;5028446;28;20052;-70
2023/06/27 06:04:35;;;;;;;1999.90;999.90;;;16.40;99.90;;;;;;5030439;28;20392;-71
2023/06/27 06:07:03;;;;;;;1999.90;999.90;;;16.40;99.90;;;;;;5025896;28;20021;-71
2023/06/27 06:09:29;;;;;;;1999.90;999.90;;;16.50;99.90;;;;;;5026557;28;20017;-70
2023/06/27 06:11:55;;;;;;;1999.90;999.90;;;16.60;99.90;;;;;;5046131;28;20025;-70
2023/06/27 06:14:21;;;;;;;1999.90;999.90;;;16.80;99.90;;;;;;5037470;28;20126;-70
2023/06/27 06:16:47;;;;;;;1999.90;999.90;;;16.90;99.90;;;;;;5037694;28;20033;-70
2023/06/27 06:19:13;;;;;;;1999.90;999.90;;;16.90;99.90;;;;;;5043206;28;20018;-70
2023/06/27 06:21:39;;;;;;;1999.90;999.90;;;16.90;99.90;;;;;;5030553;28;20476;-70
2023/06/27 06:24:05;;;;;;;1999.90;999.90;;;17.00;99.90;;;;;;5030128;28;20476;-71
2023/06/27 06:26:30;;;;;;;1999.90;999.90;;;17.20;99.90;;;;;;5028555;28;20535;-71
2023/06/27 06:28:56;;;;;;;1999.90;999.90;;;17.30;99.90;;;;;;5033214;28;20397;-70
2023/06/27 06:31:24;;;;;;;1999.90;999.90;;;17.30;99.90;;;;;;5041462;28;20018;-71
2023/06/27 06:33:50;;;;;;;1999.90;999.90;;;17.50;99.90;;;;;;5020682;28;20049;-70
2023/06/27 06:36:15;;;;;;;1999.90;999.90;;;17.70;99.90;;;;;;5026244;28;20061;-70
2023/06/27 06:38:41;;;;;;;1999.90;999.90;;;17.90;99.90;;;;;;5035552;28;20052;-70
2023/06/27 06:41:07;;;;;;;1999.90;999.90;;;18.00;99.90;;;;;;5036265;28;20056;-70
2023/06/27 06:43:32;;;;;;;1999.90;999.90;;;18.20;99.90;;;;;;5042724;28;20469;-70
2023/06/27 06:45:59;;;;;;;1999.90;999.90;;;18.50;99.90;;;;;;5033056;28;20112;-70
2023/06/27 06:48:24;;;;;;;1999.90;999.90;;;18.70;99.90;;;;;;5028993;28;20093;-70
2023/06/27 06:50:51;;;;;;;1999.90;999.90;;;18.80;99.90;;;;;;5024447;28;20476;-70
2023/06/27 06:53:18;;;;;;;1999.90;999.90;;;18.90;99.90;;;;;;5027398;28;20037;-70
2023/06/27 06:55:43;;;;;;;1999.90;999.90;;;19.10;99.90;;;;;;5030445;28;20039;-70
2023/06/27 06:58:09;;;;;;;1999.90;999.90;;;19.20;99.90;;;;;;5032063;28;20030;-70
2023/06/27 07:00:35;;;;;;;1999.90;999.90;;;19.30;99.90;;;;;;5029085;28;20111;-70
2023/06/27 07:03:03;;;;;;;1999.90;999.90;;;19.40;99.90;;;;;;5028473;28;20033;-70
2023/06/27 07:05:29;;;;;;;1999.90;999.90;;;19.60;99.90;;;;;;5024161;28;20049;-70
2023/06/27 07:07:54;;;;;;;1999.90;999.90;;;19.70;99.90;;;;;;5029200;28;20044;-70
2023/06/27 07:10:20;;;;;;;1999.90;999.90;;;19.80;99.90;;;;;;5028542;28;20025;-70
2023/06/27 07:12:46;;;;;;;1999.90;999.90;;;19.90;99.90;;;;;;5030457;28;20071;-70
2023/06/27 07:15:11;;;;;;;1999.90;999.90;;;19.90;99.90;;;;;;5038765;28;20040;-70
2023/06/27 07:17:37;;;;;;;1999.90;999.90;;;20.00;99.90;;;;;;5031085;28;20105;-70
2023/06/27 07:20:07;;;;;;;1999.90;999.90;;;20.20;99.90;;;;;;5027120;28;20029;-70
2023/06/27 07:22:32;;;;;;;1999.90;999.90;;;20.20;99.90;;;;;;5028108;28;20407;-70
2023/06/27 07:24:58;;;;;;;1999.90;999.90;;;20.40;99.90;;;;;;5031738;28;20104;-70
2023/06/27 07:27:23;;;;;;;1999.90;999.90;;;20.70;99.90;;;;;;5022496;28;20030;-70
2023/06/27 07:29:49;;;;;;;1999.90;999.90;;;20.90;99.90;;;;;;5023813;28;20037;-70
2023/06/27 07:32:14;;;;;;;1999.90;999.90;;;21.10;99.90;;;;;;5036424;28;20140;-70
2023/06/27 07:34:40;;;;;;;1999.90;999.90;;;21.60;99.90;;;;;;5033741;28;20041;-70
2023/06/27 07:37:07;;;;;;;1999.90;999.90;;;22.70;99.90;;;;;;5030238;28;20041;-71
2023/06/27 07:39:32;;;;;;;1999.90;999.90;;;23.40;99.90;;;;;;5028502;28;20037;-70
2023/06/27 07:41:58;;;;;;;1999.90;999.90;;;24.10;99.90;;;;;;5021780;28;20607;-70
2023/06/27 07:44:24;;;;;;;1999.90;999.90;;;24.40;99.90;;;;;;5029415;28;20101;-71
2023/06/27 07:46:50;;;;;;;1999.90;999.90;;;24.70;99.90;;;;;;5030148;28;20079;-71
2023/06/27 07:49:16;;;;;;;1999.90;999.90;;;25.10;99.90;;;;;;5036833;28;20029;-70
2023/06/27 07:51:42;;;;;;;1999.90;999.90;;;25.40;99.90;;;;;;5038545;28;20501;-70
2023/06/27 07:54:09;;;;;;;1999.90;999.90;;;25.40;99.90;;;;;;5032421;28;20057;-71
2023/06/27 07:56:35;;;;;;;1999.90;999.90;;;25.70;99.90;;;;;;5030208;28;20095;-70
2023/06/27 07:59:02;;;;;;;1999.90;999.90;;;26.20;99.90;;;;;;5024042;28;20503;-71
2023/06/27 08:01:27;;;;;;;1999.90;999.90;;;26.20;99.90;;;;;;5034720;28;20029;-71
2023/06/27 08:03:53;;;;;;;1999.90;999.90;;;26.00;99.90;;;;;;5029116;28;20089;-71
2023/06/27 08:06:19;;;;;;;1999.90;999.90;;;25.90;99.90;;;;;;5037889;28;20024;-71
2023/06/27 08:08:45;;;;;;;1999.90;999.90;;;25.70;99.90;;;;;;5028504;28;20033;-70
2023/06/27 08:11:10;;;;;;;1999.90;999.90;;;25.40;99.90;;;;;;5029235;28;20037;-70
2023/06/27 08:13:41;;;;;;;1999.90;999.90;;;25.70;99.90;;;;;;5032184;28;20586;-71
2023/06/27 08:16:10;;;;;;;1999.90;999.90;;;26.30;99.90;;;;;;5022160;28;20029;-71
2023/06/27 08:18:35;;;;;;;1999.90;999.90;;;26.80;99.90;;;;;;5029074;28;20140;-71
2023/06/27 08:21:01;;;;;;;1999.90;999.90;;;27.40;99.90;;;;;;5033548;28;20064;-72
2023/06/27 08:23:27;;;;;;;1999.90;999.90;;;27.50;99.90;;;;;;5018206;28;20030;-71
2023/06/27 08:25:54;;;;;;;1999.90;999.90;;;27.20;99.90;;;;;;5022182;28;20028;-71
2023/06/27 08:28:20;;;;;;;1999.90;999.90;;;27.60;99.90;;;;;;5019720;28;20068;-72
2023/06/27 08:30:46;;;;;;;1999.90;999.90;;;27.70;99.90;;;;;;5022628;28;20033;-71
2023/06/27 08:33:11;;;;;;;1999.90;999.90;;;28.20;99.90;;;;;;5029324;28;20037;-71
2023/06/27 08:35:38;;;;;;;1999.90;999.90;;;28.50;99.90;;;;;;5026060;28;20025;-71
2023/06/27 08:38:04;;;;;;;1999.90;999.90;;;28.70;99.90;;;;;;5019305;28;20118;-71
2023/06/27 08:40:34;;;;;;;1999.90;999.90;;;29.20;99.90;;;;;;5022414;28;20057;-71
2023/06/27 08:43:00;;;;;;;1999.90;999.90;;;29.20;99.70;;;;;;5031499;28;20041;-72
2023/06/27 08:45:25;;;;;;;1999.90;999.90;;;29.40;99.20;;;;;;5027695;28;20431;-71
2023/06/27 08:47:51;;;;;;;1999.90;999.90;;;29.60;99.10;;;;;;5029189;28;20036;-71
2023/06/27 08:50:20;;;;;;;1999.90;999.90;;;29.90;98.50;;;;;;5027691;28;20033;-71
2023/06/27 08:52:54;;;;;;;1999.90;999.90;;;30.30;97.90;;;;;;5031625;28;20446;-71
2023/06/27 08:55:25;;;;;;;1999.90;999.90;;;30.10;97.40;;;;;;5029290;28;20025;-72
2023/06/27 08:57:52;;;;;;;1999.90;999.90;;;30.10;99.00;;;;;;5025736;28;20033;-72
2023/06/27 09:00:22;;;;;;;1999.90;999.90;;;30.50;97.50;;;;;;5034994;28;20025;-72
2023/06/27 09:02:49;;;;;;;1999.90;999.90;;;30.40;96.80;;;;;;5032464;28;20045;-71
2023/06/27 09:05:15;;;;;;;1999.90;999.90;;;30.60;96.60;;;;;;5037478;28;20035;-72
2023/06/27 09:07:42;;;;;;;1999.90;999.90;;;30.80;97.20;;;;;;5033382;28;20476;-72
2023/06/27 09:10:09;;;;;;;1999.90;999.90;;;31.10;96.20;;;;;;5031832;28;20085;-73
2023/06/27 09:12:37;;;;;;;1999.90;999.90;;;30.90;95.90;;;;;;5041268;28;20029;-74
2023/06/27 09:15:04;;;;;;;1999.90;999.90;;;30.50;96.70;;;;;;5031943;28;20065;-74
2023/06/27 09:17:29;;;;;;;1999.90;999.90;;;30.70;96.60;;;;;;5034295;28;20037;-73
2023/06/27 09:19:55;;;;;;;1999.90;999.90;;;30.40;97.00;;;;;;5029551;28;20337;-74
2023/06/27 09:22:23;;;;;;;1999.90;999.90;;;30.60;97.20;;;;;;5032983;28;20037;-74
2023/06/27 09:24:49;;;;;;;1999.90;999.90;;;30.80;95.80;;;;;;5034698;28;20043;-74
2023/06/27 09:27:31;;;;;;;1999.90;999.90;;;31.40;94.30;;;;;;5037206;28;20034;-74
2023/06/27 09:30:03;;;;;;;1999.90;999.90;;;31.30;95.40;;;;;;5034964;28;20034;-74
2023/06/27 09:32:29;;;;;;;1999.90;999.90;;;31.20;96.30;;;;;;5031918;28;20033;-74
2023/06/27 09:34:55;;;;;;;1999.90;999.90;;;31.30;95.10;;;;;;5033746;28;20044;-74
2023/06/27 09:37:27;;;;;;;1999.90;999.90;;;31.60;95.10;;;;;;5034256;28;20116;-74
2023/06/27 09:39:54;;;;;;;1999.90;999.90;;;32.40;95.20;;;;;;5042742;28;20037;-73
2023/06/27 09:42:19;;;;;;;1999.90;999.90;;;32.70;93.60;;;;;;5035352;28;20480;-74
2023/06/27 09:44:45;;;;;;;1999.90;999.90;;;33.10;92.90;;;;;;5032273;28;20032;-74
2023/06/27 09:47:11;;;;;;;1999.90;999.90;;;32.70;91.70;;;;;;5033469;28;20033;-72
2023/06/27 09:49:41;;;;;;;1999.90;999.90;;;32.30;91.80;;;;;;5028102;28;20083;-74
2023/06/27 09:52:08;;;;;;;1999.90;999.90;;;31.90;91.80;;;;;;5028569;28;20048;-73
2023/06/27 09:54:44;;;;;;;1999.90;999.90;;;31.00;93.30;;;;;;5034820;28;20021;-73
2023/06/27 09:57:14;;;;;;;1999.90;999.90;;;31.50;91.70;;;;;;5023925;28;20033;-73
2023/06/27 09:59:40;;;;;;;1999.90;999.90;;;31.90;91.80;;;;;;5027631;28;20033;-74
2023/06/27 10:02:12;;;;;;;1999.90;999.90;;;32.00;90.60;;;;;;5026718;28;20040;-74
2023/06/27 10:04:37;;;;;;;;;;;31.70;91.40;;;;;;5034004;28;20376;-73
2023/06/27 10:07:03;;;;;;;1999.90;999.90;;;30.90;92.40;;;;;;5036983;28;19908;-73
2023/06/27 10:09:29;;;;;;;1999.90;999.90;;;30.20;92.00;;;;;;5030983;28;20021;-73
2023/06/27 10:11:55;;;;;;;1999.90;999.90;;;29.30;92.40;;;;;;5037875;28;20040;-73
2023/06/27 10:14:21;;;;;;;1999.90;999.90;;;29.00;93.40;;;;;;5025594;28;20045;-71
2023/06/27 10:16:49;;;;;;;1999.90;999.90;;;28.90;94.60;;;;;;5021722;28;20084;-71
2023/06/27 10:19:15;;;;;;;1999.90;999.90;;;28.70;93.90;;;;;;5031647;28;20052;-71
2023/06/27 10:21:41;;;;;;;1999.90;999.90;;;28.80;94.90;;;;;;5028608;28;20060;-71
2023/06/27 10:24:09;;;;;;;1999.90;999.90;;;30.00;94.10;;;;;;5030645;28;20064;-71
2023/06/27 10:26:34;;;;;;;1999.90;999.90;;;30.50;93.20;;;;;;5028566;28;20037;-72
2023/06/27 10:29:13;;;;;;;1999.90;999.90;;;30.60;93.80;;;;;;5032572;28;20131;-72
2023/06/27 10:31:44;;;;;;;1999.90;999.90;;;30.80;93.30;;;;;;5029601;28;20022;-71
2023/06/27 10:34:37;;;;;;;1999.90;999.90;;;30.60;93.10;;;;;;5026901;28;20029;-71
2023/06/27 10:37:05;;;;;;;1999.90;999.90;;;30.00;94.20;;;;;;5029414;28;20033;-71
2023/06/27 10:39:32;;;;;;;1999.90;999.90;;;30.30;93.90;;;;;;5030957;28;20068;-72
2023/06/27 10:42:26;;;;;;;1999.90;999.90;;;30.70;94.20;;;;;;5030946;28;20017;-73
2023/06/27 10:45:04;;;;;;;1999.90;999.90;;;31.70;93.70;;;;;;5027225;28;20033;-72
2023/06/27 10:47:38;;;;;;;1999.90;999.90;;;32.50;93.40;;;;;;5031985;28;20071;-71
2023/06/27 10:50:15;;;;;;;1999.90;999.90;;;32.80;91.30;;;;;;5030195;28;20033;-71
2023/06/27 10:53:01;;;;;;;1999.90;999.90;;;32.70;90.50;;;;;;5028913;28;20531;-72
2023/06/27 10:55:28;;;;;;;1999.90;999.90;;;33.20;90.90;;;;;;5028396;28;20033;-72
2023/06/27 10:58:09;;;;;;;1999.90;999.90;;;33.50;89.80;;;;;;5027330;28;20017;-72
2023/06/27 11:00:40;;;;;;;1999.90;999.90;;;32.90;90.60;;;;;;5023303;28;20031;-72
2023/06/27 11:03:08;;;;;;;1999.90;999.90;;;33.20;90.40;;;;;;5030082;28;20026;-71
2023/06/27 11:05:42;;;;;;;1999.90;999.90;;;32.70;90.20;;;;;;5028262;28;20033;-72
2023/06/27 11:08:10;;;;;;;1999.90;999.90;;;32.70;90.40;;;;;;5029326;28;20029;-71
2023/06/27 11:10:36;;;;;;;1999.90;999.90;;;32.40;91.30;;;;;;5032544;28;20037;-71
2023/06/27 11:13:12;;;;;;;1999.90;999.90;;;30.60;90.70;;;;;;5030226;28;20297;-71
2023/06/27 11:15:38;;;;;;;1999.90;999.90;;;30.40;91.90;;;;;;5028344;28;20044;-71
2023/06/27 11:18:05;;;;;;;1999.90;999.90;;;30.00;91.50;;;;;;5027134;28;20029;-72
2023/06/27 11:20:32;;;;;;;1999.90;999.90;;;29.60;92.90;;;;;;5032216;28;20041;-72
2023/06/27 11:23:03;;;;;;;1999.90;999.90;;;29.90;93.00;;;;;;5029894;28;20075;-71
2023/06/27 11:25:38;;;;;;;1999.90;999.90;;;31.30;93.10;;;;;;5029690;28;20030;-71
2023/06/27 11:28:04;;;;;;;1999.90;999.90;;;32.20;90.50;;;;;;5028560;28;20024;-71
2023/06/27 11:30:33;;;;;;;1999.90;999.90;;;31.20;90.80;;;;;;5036005;28;20091;-72
2023/06/27 11:33:00;;;;;;;1999.90;999.90;;;29.90;91.80;;;;;;5024548;28;20029;-72
2023/06/27 11:35:28;;;;;;;1999.90;999.90;;;29.60;94.00;;;;;;5026731;28;20026;-71
2023/06/27 11:37:54;;;;;;;1999.90;999.90;;;28.70;94.60;;;;;;5015686;28;20034;-70
2023/06/27 11:40:21;;;;;;;1999.90;999.90;;;28.70;95.50;;;;;;5030062;28;20035;-71
2023/06/27 11:42:47;;;;;;;1999.90;999.90;;;29.40;94.50;;;;;;5032397;28;20032;-71
2023/06/27 11:45:13;;;;;;;1999.90;999.90;;;29.80;93.80;;;;;;5034885;28;20029;-72
2023/06/27 11:47:39;;;;;;;1999.90;999.90;;;30.40;94.20;;;;;;5031873;28;20022;-71
2023/06/27 11:50:10;;;;;;;1999.90;999.90;;;30.60;95.60;;;;;;5029503;28;20056;-71
2023/06/27 11:52:37;;;;;;;1999.90;999.90;;;30.10;95.20;;;;;;5027289;28;20431;-71
2023/06/27 11:55:05;;;;;;;1999.90;999.90;;;30.30;95.30;;;;;;5037765;28;20021;-70
2023/06/27 11:57:44;;;;;;;1999.90;999.90;;;30.00;95.10;;;;;;5035523;28;20037;-71
2023/06/27 12:00:24;;;;;;;1999.90;999.90;;;28.80;97.90;;;;;;5025242;28;20039;-71